Ivan Montecinos

Scout - Union Espanola
17 Jul 2027
Samstag
Verarbeitung

Persönlichkeit

Anpassungsfähigkeit (8) Ehrgeiz (2) Kontroverse (14) Loyalität (10) Druck (17) Professionalität (6) Fairness (14) Temperament (11)

Profil

Trainerstil Demokratisch
Lizenz Kontinentale C
Entschlossenheit 10
Menschenführung 12
Motivation 11
Disziplin 6
Arbeitszufriedenheit
72%
Ermüdung
0%
Rolle Scout
Gehalt 61.5K p/W
Vertrag 14.03.2028

Leistung

Verhalten Gut
Trainingseffektivität
23%
Spielerentwicklung
35%
Verletzungsprävention
60%
Taktische Umsetzung
50%

Letzte Ereignisse

Nahm an einer Scouting-Besprechung teil jetzt
Nahm an einer Scouting-Besprechung teil 7T her
Empfahl ein Transferziel 7T her
Empfahl ein Transferziel 7T her
Empfahl ein Transferziel 7T her
Nahm an einer Scouting-Besprechung teil 14T her
Empfahl ein Transferziel 14T her
Empfahl ein Transferziel 14T her

Aktuell beobachtet

130
Spieler Verein Status Fähigkeit Vertrauen Beobachtet Zuletzt beobachtet Letzte Stimme
Renato Huerta Universidad de Chile Aktiv 90 / 99 72% 1 28.06.2027 Befürworten
Finn Azaz Southampton Aktiv 132 / 127 40% 4 19.05.2027 -
Paris Maghoma Norwich City Aktiv 118 / 134 40% 2 19.05.2027 -
Isaiah Jones Luton Town Aktiv 127 / 123 40% 3 13.05.2027 -
Thalys Almería Aktiv 125 / 126 40% 1 13.05.2027 -
Daniel Kyerewaa Reading Aktiv 123 / 111 40% 5 11.05.2027 -
Ramón Terrats Getafe Aktiv 138 / 139 40% 2 11.05.2027 -
Ronald Swansea City Aktiv 121 / 123 40% 2 11.05.2027 -
Tom Fellows Southampton Aktiv 130 / 130 40% 2 10.05.2027 -
Zeidane Inoussa Swansea City Aktiv 133 / 129 40% 1 10.05.2027 -
Mathias Jørgensen Blackburn Rovers Aktiv 129 / 119 40% 1 09.05.2027 -
Jack McGlynn Stoke City Aktiv 126 / 139 40% 1 03.05.2027 -
Koki Saito Queens Park Rangers Aktiv 119 / 131 40% 2 30.04.2027 -
Myles Peart-Harris Oxford United Aktiv 130 / 127 40% 1 30.04.2027 -
Andre Brooks Sheffield United Aktiv 134 / 132 40% 2 27.04.2027 -
Ali Ahmed Norwich City Aktiv 134 / 121 40% 1 27.04.2027 -
Kasey McAteer Ipswich Town Aktiv 125 / 131 40% 1 25.04.2027 -
Isaac Price West Bromwich Albion Aktiv 121 / 129 40% 1 24.04.2027 -
Romano Schmid Frosinone Aktiv 135 / 151 40% 1 24.04.2027 -
Relebohile Mofokeng Orlando Pirates Aktiv 111 / 114 40% 3 17.04.2027 -
Mduduzi Shabalala Kaizer Chiefs Aktiv 112 / 106 40% 4 17.04.2027 -
Joe Gelhardt Hull City Aktiv 125 / 132 40% 1 15.04.2027 -
Cian Ashford Cardiff City Aktiv 114 / 114 40% 3 14.04.2027 -
Fraser Murray Wigan Athletic Aktiv 111 / 121 40% 2 13.04.2027 -
Romaine Mundle Sunderland Aktiv 135 / 136 40% 1 23.03.2027 -
Juan Bezerra Zamalek Aktiv 116 / 111 40% 1 23.03.2027 -
Brian Figueroa Morelia Aktiv 101 / 114 40% 2 19.03.2027 -
Tony Springett Barnet Aktiv 102 / 108 40% 1 17.03.2027 -
Jeon Jin-Woo Sheffield Wednesday Aktiv 133 / 126 40% 2 08.03.2027 -
Gorka Gorosabel Real Sociedad Aktiv 108 / 104 40% 3 23.02.2027 -
Othmane Maamma Watford Aktiv 126 / 131 40% 2 23.02.2027 -
Nuno Santos Mamelodi Sundowns Aktiv 139 / 124 40% 1 18.02.2027 -
Loum Tchaouna Coventry City Aktiv 129 / 129 40% 1 18.02.2027 -
Lamine Cissé Peterborough United Aktiv 121 / 128 40% 2 17.02.2027 -
Rumarn Burrell Queens Park Rangers Aktiv 133 / 125 40% 1 17.02.2027 -
Luther Tau SuperSport United Aktiv 107 / 112 40% 4 15.02.2027 -
Camilo Durán Bloemfontein Celtic Aktiv 129 / 107 40% 2 14.02.2027 -
Artem Slesar Zorya Aktiv 123 / 111 40% 1 13.02.2027 -
Job Ochieng Real Sociedad Aktiv 100 / 111 40% 1 09.02.2027 -
John Mercado Sparta Prague Aktiv 134 / 132 40% 2 08.02.2027 -
Ethan Williams Peterborough United Aktiv 116 / 120 40% 1 08.02.2027 -
Peter Federico Gornik Zabrze Aktiv 115 / 111 40% 1 03.02.2027 -
Manuel Duarte Barracas Central Aktiv 120 / 117 40% 3 28.01.2027 -
Michal Kohút Banik Ostrava Aktiv 133 / 136 40% 1 26.01.2027 -
Alan Lescano Argentinos Juniors Aktiv 127 / 127 40% 2 24.01.2027 -
Enzo Avaro Mitre Aktiv 117 / 109 40% 1 24.01.2027 -
Santiago Sala Güemes Aktiv 114 / 107 40% 1 24.01.2027 -
Christian Krasnodar Aktiv 131 / 143 40% 3 23.01.2027 -
Alex Luna Instituto Aktiv 129 / 134 40% 1 16.01.2027 -
Williams Alarcón Boca Juniors Aktiv 127 / 128 40% 1 13.01.2027 -
Joaquín Gho Argentinos Juniors Aktiv 130 / 132 40% 1 13.01.2027 -
Jordhy Thompson Rubin Aktiv 119 / 107 40% 1 12.01.2027 -
Aljoša Matko Ujpest Aktiv 116 / 127 40% 2 11.01.2027 -
Manuel Mónaco Sarmiento Aktiv 124 / 114 40% 2 11.01.2027 -
Alexander Díaz Deportivo Riestra Aktiv 125 / 113 40% 1 11.01.2027 -
Lautaro Ríos Banfield Aktiv 118 / 115 40% 1 09.01.2027 -
Tomás O'Connor Gimnasia y Esgrima Aktiv 124 / 123 40% 1 04.01.2027 -
Nahuel Donadell San Marcos de Arica Aktiv 93 / 103 72% 1 01.12.2026 Befürworten
Matthias Seidl Rapid Wien Aktiv 117 / 128 40% 1 28.11.2026 -
Michael Cooper Sheffield United Aktiv 131 / 123 40% 3 27.11.2026 -
Fran Vieites Exeter City Aktiv 109 / 123 40% 2 27.11.2026 -
Egil Selvik Watford Aktiv 117 / 134 40% 1 27.11.2026 -
Anthony Patterson Wrexham Aktiv 132 / 121 40% 2 23.11.2026 -
Josh Keeley Luton Town Aktiv 112 / 119 40% 1 23.11.2026 -
Mateusz Kochalski Qarabag Aktiv 126 / 118 40% 1 23.11.2026 Mehr Infos nötig
Dayne St. Clair Inter Miami CF Aktiv 127 / 121 40% 2 21.11.2026 -
Filip Marschall Stevenage Aktiv 119 / 104 40% 1 21.11.2026 -
Jacob Widell Zetterström Derby County Aktiv 124 / 117 40% 1 16.11.2026 Mehr Infos nötig
Carl Rushworth Coventry City Aktiv 133 / 140 40% 1 16.11.2026 -
Renato Solís Sporting Cristal Aktiv 117 / 123 40% 1 14.11.2026 -
Joaquín Pereyra Minnesota United FC Aktiv 129 / 136 40% 2 12.11.2026 -
Tomás Escalante Plaza Colonia Aktiv 117 / 127 40% 1 10.11.2026 -
Jens Petter Hauge Bodo/Glimt Aktiv 136 / 132 40% 1 10.11.2026 -
Alejandro Araque Deportivo Tachira Aktiv 118 / 105 40% 5 08.11.2026 -
Alex Robertson Cardiff City Aktiv 128 / 134 40% 2 08.11.2026 -
Facundo Altamirano San Lorenzo Aktiv 112 / 119 40% 1 08.11.2026 -
Xavier Biscayzacú Sporting CP Aktiv 120 / 136 40% 1 08.11.2026 -
Zach Hemming Chesterfield Aktiv 112 / 116 40% 1 04.11.2026 -
Liam Roberts Mansfield Town Aktiv 120 / 109 40% 1 04.11.2026 -
Miguel Vargas Universitario Aktiv 110 / 121 40% 3 03.11.2026 -
Angel Zamudio CFR Cluj Aktiv 126 / 118 40% 2 03.11.2026 -
Igor Nikić Lech Aktiv 111 / 124 40% 2 02.11.2026 -
Roman Celentano FC Cincinnati Aktiv 110 / 110 40% 1 02.11.2026 -
Agustín Lastra Estudiantes Aktiv 105 / 111 40% 1 02.11.2026 -
Robert FC Copenhagen Aktiv 134 / 140 40% 1 01.11.2026 -
Álvaro Fernández Deportivo La Coruña Aktiv 135 / 136 40% 1 30.10.2026 -
Jonathan De Irastorza Levante Aktiv 111 / 132 40% 1 27.10.2026 -
Emi Rodriguez Leon Aktiv 113 / 107 40% 1 26.10.2026 -
Sead Hakšabanović Malmo FF Aktiv 130 / 119 40% 1 25.10.2026 -
Lucas Assadi AIK Aktiv 137 / 135 40% 1 24.10.2026 -
Nazar Voloshyn Dynamo Kyiv Aktiv 125 / 128 40% 1 24.10.2026 -
Tobías Bovone Deportivo Pereira Aktiv 108 / 106 40% 1 21.10.2026 -
Paxten Aaronson Colorado Rapids Aktiv 133 / 124 40% 1 21.10.2026 -
Sebastián Lentinelly Olimpia Aktiv 114 / 114 40% 2 20.10.2026 -
Iñaki Peña Panathinaikos Aktiv 133 / 129 40% 1 19.10.2026 -
Liel Abada Charlotte Football Club Aktiv 129 / 131 40% 1 19.10.2026 -
Alexander Aravena Portland Timbers Aktiv 114 / 134 40% 1 19.10.2026 -
Santiago Toloza O'Higgins Aktiv 125 / 126 40% 1 19.10.2026 -
Diego Enríquez Sporting Cristal Aktiv 132 / 131 40% 2 17.10.2026 -
Zacarías López Iquique Aktiv 105 / 97 40% 1 16.10.2026 -
Santiago Rojas Nacional Aktiv 122 / 119 40% 2 15.10.2026 -
Hugo Gallardo Veracruz Aktiv 108 / 87 40% 1 15.10.2026 -
Diego Romero Universitario Aktiv 126 / 124 40% 3 13.10.2026 -
James Pantemis Portland Timbers Aktiv 108 / 106 40% 1 13.10.2026 -
Kermit Erasmus Platinum Stars Aktiv 98 / 114 40% 1 10.10.2026 -
CJ dos Santos San Diego Football Club Aktiv 110 / 119 40% 1 07.10.2026 -
Martin Jedlička Banik Ostrava Aktiv 119 / 128 40% 1 03.10.2026 -
Nicolás Campisi Sportivo Luqueno Aktiv 120 / 126 40% 1 03.10.2026 -
Javier Altamirano Universidad de Chile Aktiv 130 / 126 40% 1 02.10.2026 -
Tomás Chancalay Minnesota United FC Aktiv 127 / 136 40% 1 02.10.2026 -
Matt Freese New York City Aktiv 125 / 123 40% 1 01.10.2026 -
Cristopher Varela Deportivo La Guaira Aktiv 116 / 120 40% 1 29.09.2026 -
Lucas Verza Olimpia Aktiv 117 / 113 40% 1 29.09.2026 -
Victor Aznar Cádiz Aktiv 124 / 128 40% 1 29.09.2026 -
Alexis Steimbach Gimnasia La Plata Aktiv 125 / 126 40% 1 26.09.2026 -
Matías Pellegrini Vélez Aktiv 123 / 117 40% 1 26.09.2026 -
Elías Báez Atlanta United FC Aktiv 117 / 120 40% 1 23.09.2026 -
Ramiro Ruiz Rodríguez Atlético Tucumán Aktiv 118 / 115 40% 1 23.09.2026 -
Tadeo Allende Inter Miami CF Aktiv 126 / 111 40% 1 22.09.2026 -
Julián Ceballos Gimnasia y Esgrima Aktiv 107 / 113 40% 2 21.09.2026 -
Juan Larios Piast Aktiv 123 / 127 40% 1 21.09.2026 -
Esteban Valencia Cobresal Aktiv 109 / 108 40% 1 21.09.2026 -
Gonzalo Córdoba Mitre Aktiv 103 / 107 40% 1 17.09.2026 -
Ignacio Aliseda Cerro Porteno Aktiv 124 / 119 40% 1 16.09.2026 -
Patrick Schulte Columbus Crew Aktiv 113 / 110 40% 1 11.09.2026 -
Daniel Prieto Alianza Atletico Aktiv 116 / 108 40% 1 10.09.2026 -
Lucas Bruera Carabobo Aktiv 115 / 122 40% 1 10.09.2026 -
Rogelio Funes Mori Universidad de Concepcion Aktiv 131 / 131 52% 1 / 1m 19.08.2026 -
Nicolás Bolcato Independiente Rivadavia Aktiv 107 / 108 40% 1 01.08.2026 -
José Devecchi San Lorenzo Aktiv 119 / 121 40% 1 01.08.2026 -